Mantorville, Minnesota
Current Conditions -  °F | °C
As of 12:54 PM on Friday 24 Oct 2014 (Local Time) from KTOB Reporting Station
Haze Haze  
Wind Chill: 55°   Ceiling: 400
Heat Index: 55°   Visibility: 2mi
Dew Point: 54°   Wind: 12mph
Humidity: 94%   Direction: 190°S
Pressure: 29.89"   Gusts: NA
Location:  44.07°N, 92.76°W
Report Text: KTOB 241754Z AUTO 19010KT 2SM BR OVC004 13/12 A2989 RMK AO2
Loading
Personal Weather Stations






























Interactive Weather Map New forecast layout! Learn more

10-Day Weather Forecast

Advertisements
Track Severe Weather on mobile